METAR Data
IDs: Format: Raw Decoded Include TAF

Data at: 2132 UTC 08 Aug 2020

KACK 082100Z AUTO 05005KT 10SM OVC008 22/19 A3014 RMK AO2 T02220189
KACK 082053Z AUTO 08005KT 10SM OVC004 22/19 A3014 RMK AO2 SLP204 T02220189 55002
KACK 082026Z 08007KT 10SM OVC004 22/19 A3013 RMK AO2 T02220194
KACK 081953Z 08007KT 10SM OVC010 23/19 A3013 RMK AO2 SLP203 T02280194
KACK 081853Z 06006KT 10SM OVC010 23/19 A3013 RMK AO2 SLP204 T02330194
KACK 081829Z 06007KT 10SM OVC010 23/19 A3014 RMK AO2 CIG 008V013 T02330194
KACK 081753Z 06007KT 10SM OVC008 23/19 A3014 RMK AO2 SLP207 T02330194 10244 20200 58007
KACK 081653Z 01008KT 10SM OVC008 24/19 A3015 RMK AO2 SLP210 T02390194
KACK 081553Z 36009KT 10SM OVC008 24/20 A3016 RMK AO2 CIG 006V011 SLP213 T02390200
KACK 081453Z 04007KT 10SM OVC007 23/19 A3016 RMK AO2 CIG 005V009 SLP214 T02280194 53003
KACK 081353Z 06006KT 10SM OVC005 22/19 A3015 RMK AO2 CIG 004V007 SLP210 T02220194
KACK 081253Z 07005KT 3SM BR OVC002 21/19 A3016 RMK AO2 SLP211 T02060194
KACK 081153Z 07005KT 3SM BR OVC002 20/19 A3015 RMK AO2 SLP211 T02000194 10200 20194 51009
KACK 081126Z 07004KT 3SM BR OVC002 19/19 A3016 RMK AO2 T01940189
KACK 081053Z 05005KT 2SM R24/5500VP6000FT BR BKN002 OVC010 19/19 A3014 RMK AO2 SLP208 T01940189
KACK 081046Z 05007KT 2SM R24/4000VP6000FT BR BKN002 OVC010 19/19 A3014 RMK AO2 T01940189
KACK 081037Z AUTO 04007KT 1/2SM R24/2800V5000FT FG VV002 19/19 A3014 RMK AO2 T01940189
KACK 081030Z AUTO 05007KT 1/4SM R24/1800V3500FT FG VV002 19/19 A3013 RMK AO2 T01940189
KACK 080957Z AUTO 04007KT 1/4SM R24/1600V2000FT FG VV002 19/19 A3014 RMK AO2 T01940189
KACK 080953Z AUTO 04006KT 1/2SM R24/1600V4000FT FG VV002 19/19 A3014 RMK AO2 SLP207 T01940189
KACK 080946Z AUTO 04006KT 1 3/4SM R24/3000VP6000FT BR OVC002 19/19 A3014 RMK AO2 T01940189
KACK 080938Z AUTO 04007KT 3/4SM R24/2200VP6000FT BR VV002 19/19 A3013 RMK AO2 T01940189
KACK 080919Z AUTO 05007KT 1/4SM R24/1400V1800FT FG VV002 19/19 A3013 RMK AO2 T01940189
KACK 080909Z AUTO 05007KT 1/2SM R24/1800V2400FT FG VV002 19/19 A3012 RMK AO2 T01940189
KACK 080901Z AUTO 04008KT 1/4SM R24/1800V2000FT FG VV002 19/19 A3013 RMK AO2 T01940189
KACK 080853Z AUTO 04008KT 1/2SM R24/1800V2400FT FG VV002 20/19 A3013 RMK AO2 SLP202 T02000194 51006
KACK 080850Z AUTO 05006KT 1/2SM R24/2000V2200FT FG VV002 20/19 A3013 RMK AO2
KACK 080842Z AUTO 04005KT 1/4SM R24/1800V2000FT FG VV002 20/19 A3013 RMK AO2 T02000194
KACK 080825Z AUTO 01006KT 1/4SM R24/2000V2400FT FG VV002 20/19 A3013 RMK AO2 T02000194
KACK 080813Z AUTO 02005KT 1/4SM R24/1600V2200FT FG VV002 20/19 A3013 RMK AO2 T02000194
KACK 080808Z AUTO 02004KT 1/4SM R24/1400V2400FT FG VV002 20/19 A3012 RMK AO2 T02000194
KACK 080753Z AUTO 04005KT 1/4SM R24/1600V2000FT FG VV002 19/19 A3012 RMK AO2 SLP198 T01940189
KACK 080714Z AUTO 07007KT 1/4SM R24/1600V1800FT FG VV002 19/19 A3011 RMK AO2 T01940189
KACK 080653Z AUTO 07007KT 1/2SM R24/2000V4000FT FG VV002 20/19 A3011 RMK AO2 SLP195 T02000194
KACK 080610Z AUTO 05006KT 1/2SM R24/1600V2400FT FG VV002 19/19 A3012 RMK AO2 T01940189
KACK 080553Z AUTO 06007KT 1/4SM R24/1400V1600FT FG VV002 19/19 A3013 RMK AO2 SLP201 T01940189 10211 20189 58004
KACK 080510Z AUTO 07006KT 1/4SM R24/1400V2200FT FG VV002 19/19 A3013 RMK AO2 T01940189
KACK 080453Z AUTO 07006KT 3/4SM R24/3000V4500FT BR VV002 19/19 A3013 RMK AO2 SLP204 T01940189 402330172
KACK 080409Z AUTO 07007KT 1/2SM R24/2600V3500FT FG VV002 19/19 A3014 RMK AO2 T01940189
KACK 080353Z AUTO 07007KT 1 1/4SM R24/4500VP6000FT BR OVC002 19/19 A3013 RMK AO2 SLP204 T01940189
KACK 080337Z AUTO 06006KT 1/2SM R24/2200V2800FT FG VV002 19/19 A3013 RMK AO2 T01940189
KACK 080329Z AUTO 06006KT 1/2SM R24/1800V2200FT FG VV002 19/19 A3013 RMK AO2 T01940189
KACK 080309Z AUTO 07006KT 1/4SM R24/1800V2200FT FG VV002 19/19 A3013 RMK AO2 T01940189
KACK 080253Z AUTO 05007KT 1/2SM R24/2000V2400FT FG VV002 19/19 A3014 RMK AO2 SLP205 T01940189 56006
KACK 080250Z AUTO 05007KT 1/2SM R24/2000V2400FT FG VV002 19/19 A3014 RMK AO2
KACK 080236Z AUTO 05005KT 1/2SM R24/1400V2000FT FG VV002 19/18 A3015 RMK AO2 T01890183
KACK 080218Z AUTO 05006KT 1 3/4SM R24/4500VP6000FT BR OVC002 20/19 A3015 RMK AO2 T02000189
KACK 080200Z AUTO 06004KT 3SM BR OVC002 19/19 A3014 RMK AO2 T01940189
KACK 080153Z AUTO 06004KT 2 1/2SM BR OVC002 19/19 A3015 RMK AO2 SLP208 T01940189
KACK 080104Z AUTO 04004KT 1 1/4SM R24/4500VP6000FT BR OVC003 19/19 A3015 RMK AO2 T01940189
KACK 080053Z AUTO 06003KT 3/4SM R24/4000VP6000FT BR VV003 19/19 A3016 RMK AO2 SLP212 T01940189
KACK 072353Z AUTO 04005KT 1/2SM R24/2200V3000FT FG VV002 20/19 A3014 RMK AO2 SLP206 T02000189 10228 20200 53004
KACK 072307Z AUTO 06005KT 1/4SM R24/1600V2400FT FG VV002 20/19 A3013 RMK AO2 T02000194
KACK 072253Z AUTO 06007KT 1/4SM R24/1400V2000FT FG VV002 21/19 A3012 RMK AO2 SLP200 T02060194
KACK 072240Z AUTO 07007KT 1/4SM R24/1400V2200FT FG VV002 21/19 A3012 RMK AO2 T02060194
KACK 072223Z AUTO 06007KT 1/4SM R24/1800V5000FT FG VV002 21/20 A3012 RMK AO2 T02060200
KACK 072206Z AUTO 08005KT 1 3/4SM BR OVC003 21/20 A3012 RMK AO2 VIS 1V5 T02110200
KACK 072200Z AUTO 05006KT 5SM BR OVC004 22/20 A3012 RMK AO2 T02170200
KACK 072153Z AUTO 06004KT 1SM R24/P6000FT BR OVC004 22/20 A3012 RMK AO2 SLP199 T02170200
KACK 072053Z 06005KT 1SM R24/4000FT BR VV002 22/20 A3013 RMK AO2 SLP202 T02170200 56008
KACK 072033Z 05007KT 3/4SM R24/4000FT BR VV002 21/20 A3012 RMK AO2 T02110200
KACK 072001Z 07006KT 2SM R24/4000VP6000FT BR VV003 22/20 A3013 RMK AO2 T02170200
KACK 071953Z 07006KT 5SM R24/4000VP6000FT BR OVC003 22/20 A3013 RMK AO2 SLP202 T02170200
KACK 071932Z 08006KT 9SM OVC004 22/21 A3014 RMK AO2 T02220206
KACK 071853Z 10006KT 10SM OVC005 23/21 A3014 RMK AO2 SLP207 T02280206
KACK 071753Z 12007KT 10SM BKN006 BKN055 23/20 A3015 RMK AO2 SLP210 T02280200 10233 20211 57003
KACK 071653Z 12008KT 8SM OVC003 22/19 A3015 RMK AO2 SLP210 T02170194
KACK 071629Z 12010KT 10SM OVC004 22/19 A3016 RMK AO2 T02220194
KACK 071608Z 11010KT 10SM BKN005 22/19 A3016 RMK AO2 T02170194
KACK 071553Z 12012KT 10SM FEW007 23/19 A3016 RMK AO2 SLP212 T02280194
KACK 071541Z 12010KT 10SM SCT003 23/19 A3016 RMK AO2 T02330194
KACK 071453Z 10011G17KT 10SM CLR 22/19 A3016 RMK AO2 SLP213 T02220189 50002
KACK 071353Z 09009KT 10SM CLR 22/19 A3017 RMK AO2 SLP216 T02220189
KACK 071253Z 09008KT 10SM CLR 22/17 A3016 RMK AO2 SLP214 T02220167
KACK 071153Z 07005KT 10SM CLR 22/17 A3015 RMK AO2 SLP211 T02170172 10217 20178 53010
KACK 071053Z AUTO 05007KT 10SM CLR 21/17 A3013 RMK AO2 SLP202 T02060172
KACK 070953Z AUTO 04006KT 10SM CLR 19/18 A3013 RMK AO2 SLP201 T01890178